Time;durP1;ratioP1;P1;durP2;ratioP2;P2;SDS_P1;SDS_P2;PMS_P1;PMS_P2;Temp;Humidity;BMP_temperature;BMP_pressure;BME280_temperature;BME280_humidity;BME280_pressure;Samples;Min_cycle;Max_cycle;Signal;HPM_P1;HPM_P2
2022/10/04 00:00:24;;;;;;;9.67;5.30;;;8.60;1.00;;;;;;5051711;28;20738;-60
2022/10/04 00:02:55;;;;;;;8.13;5.90;;;8.60;1.00;;;;;;5052825;28;20231;-59
2022/10/04 00:05:24;;;;;;;9.33;5.33;;;8.60;1.00;;;;;;5035645;28;20218;-61
2022/10/04 00:07:59;;;;;;;9.33;6.00;;;8.60;1.00;;;;;;5018486;28;20285;-61
2022/10/04 00:10:30;;;;;;;8.43;5.67;;;8.60;1.00;;;;;;5037755;28;20290;-61
2022/10/04 00:13:04;;;;;;;8.77;5.60;;;8.60;1.00;;;;;;5020062;28;20216;-60
2022/10/04 00:15:36;;;;;;;10.10;7.50;;;8.60;1.00;;;;;;5035181;28;20219;-62
2022/10/04 00:18:21;;;;;;;14.37;7.80;;;8.50;1.00;;;;;;5038577;28;20228;-62
2022/10/04 00:20:57;;;;;;;10.17;6.90;;;8.50;1.00;;;;;;5050872;28;20218;-62
2022/10/04 00:23:24;;;;;;;10.47;6.30;;;8.50;1.00;;;;;;5035317;28;20287;-61
2022/10/04 00:25:53;;;;;;;12.50;7.13;;;8.40;1.00;;;;;;5036332;28;20737;-60
2022/10/04 00:28:20;;;;;;;9.47;6.17;;;8.40;1.00;;;;;;5037329;28;20242;-60
2022/10/04 00:31:14;;;;;;;13.37;6.77;;;8.40;1.00;;;;;;5036189;28;20231;-60
2022/10/04 00:33:48;;;;;;;9.67;5.97;;;8.20;1.00;;;;;;5035877;28;20929;-61
2022/10/04 00:36:24;;;;;;;12.53;6.07;;;8.10;42.90;;;;;;5017031;28;20241;-61
2022/10/04 00:39:13;;;;;;;8.33;5.93;;;8.00;99.90;;;;;;5039354;28;20317;-60
2022/10/04 00:41:46;;;;;;;10.27;6.43;;;7.90;1.00;;;;;;5019593;28;20662;-61
2022/10/04 00:44:51;;;;;;;8.13;6.40;;;7.90;99.90;;;;;;5025865;28;20291;-59
2022/10/04 00:47:33;;;;;;;10.93;6.63;;;7.80;99.90;;;;;;4990289;28;20206;-59
2022/10/04 00:50:27;;;;;;;15.77;7.87;;;7.90;1.00;;;;;;5007040;28;20251;-58
2022/10/04 00:52:57;;;;;;;13.83;7.33;;;7.90;1.00;;;;;;5032387;28;20215;-59
2022/10/04 00:55:32;;;;;;;11.43;7.70;;;8.00;1.00;;;;;;5040221;28;20295;-60
2022/10/04 00:58:02;;;;;;;10.73;8.07;;;8.10;1.00;;;;;;5038257;28;20175;-60
2022/10/04 01:00:32;;;;;;;14.20;8.80;;;8.30;1.00;;;;;;5029733;28;20242;-60
2022/10/04 01:03:26;;;;;;;11.00;8.23;;;8.40;1.00;;;;;;5055530;28;20472;-60
2022/10/04 01:05:58;;;;;;;12.83;6.87;;;8.60;99.90;;;;;;5019603;28;20200;-60
2022/10/04 01:08:31;;;;;;;8.77;7.20;;;8.50;99.90;;;;;;5052983;28;21821;-60
2022/10/04 01:11:05;;;;;;;12.67;7.70;;;8.60;99.90;;;;;;5023800;28;20188;-60
2022/10/04 01:13:42;;;;;;;8.57;6.73;;;8.80;99.90;;;;;;5039916;28;20282;-59
2022/10/04 01:16:14;;;;;;;11.10;6.53;;;8.80;1.00;;;;;;5022187;28;20287;-60
2022/10/04 01:18:41;;;;;;;10.83;6.53;;;8.80;1.00;;;;;;5045268;28;20210;-60
2022/10/04 01:21:18;;;;;;;9.77;6.30;;;8.70;99.90;;;;;;5021373;28;20202;-60
2022/10/04 01:23:48;;;;;;;8.87;6.80;;;8.60;99.90;;;;;;5021034;28;20196;-60
2022/10/04 01:26:33;;;;;;;13.80;7.37;;;8.60;1.00;;;;;;5027106;28;20291;-60
2022/10/04 01:29:06;;;;;;;8.67;6.33;;;8.70;1.00;;;;;;5043822;28;20203;-60
2022/10/04 01:31:36;;;;;;;7.27;6.27;;;8.70;1.00;;;;;;5040746;28;20195;-60
2022/10/04 01:34:04;;;;;;;8.50;7.30;;;8.70;1.00;;;;;;5021973;28;20218;-60
2022/10/04 01:36:33;;;;;;;10.73;7.40;;;8.80;1.00;;;;;;5038458;28;20303;-60
2022/10/04 01:39:00;;;;;;;10.23;6.63;;;8.80;1.00;;;;;;5041489;28;20196;-60
2022/10/04 01:41:31;;;;;;;12.30;7.10;;;8.80;1.00;;;;;;5041108;28;20184;-60
2022/10/04 01:44:01;;;;;;;9.90;6.40;;;8.80;1.00;;;;;;5022439;28;20689;-60
2022/10/04 01:46:35;;;;;;;13.43;7.03;;;8.80;1.00;;;;;;5037326;28;20286;-60
2022/10/04 01:49:26;;;;;;;6.27;5.67;;;8.80;1.00;;;;;;5022319;28;20207;-60
2022/10/04 01:52:17;;;;;;;13.53;9.07;;;8.90;1.00;;;;;;5039576;28;20199;-59
2022/10/04 01:54:53;;;;;;;12.63;8.97;;;9.00;1.00;;;;;;5038601;28;20215;-59
2022/10/04 01:57:24;;;;;;;11.80;7.03;;;9.20;1.00;;;;;;5039897;28;20282;-59
2022/10/04 02:00:12;;;;;;;10.43;7.33;;;9.30;1.00;;;;;;5038403;28;20196;-59
2022/10/04 02:02:51;;;;;;;14.30;9.10;;;9.30;1.00;;;;;;5022707;28;20192;-59
2022/10/04 02:05:42;;;;;;;14.00;10.23;;;9.30;99.90;;;;;;5022533;28;20203;-60
2022/10/04 02:08:15;;;;;;;14.00;10.80;;;9.30;99.90;;;;;;5036951;28;20231;-60
2022/10/04 02:10:44;;;;;;;18.97;11.67;;;9.40;99.90;;;;;;5035473;28;20283;-60
2022/10/04 02:13:17;;;;;;;13.27;9.37;;;9.40;99.90;;;;;;5020365;28;20491;-60
2022/10/04 02:15:45;;;;;;;13.57;9.60;;;9.50;99.90;;;;;;5039955;28;20199;-60
2022/10/04 02:18:16;;;;;;;13.70;11.20;;;9.50;99.90;;;;;;5023321;28;20204;-61
2022/10/04 02:20:45;;;;;;;18.63;10.63;;;9.60;99.90;;;;;;5039714;28;20200;-60
2022/10/04 02:23:15;;;;;;;16.27;10.23;;;9.50;99.90;;;;;;5021534;28;20188;-60
2022/10/04 02:25:42;;;;;;;20.30;12.70;;;9.60;1.00;;;;;;5036634;28;20730;-61
2022/10/04 02:28:12;;;;;;;17.23;10.87;;;9.50;1.00;;;;;;5036231;28;20231;-60
2022/10/04 02:30:43;;;;;;;23.10;13.07;;;9.50;1.00;;;;;;5037324;28;20215;-60
2022/10/04 02:33:10;;;;;;;25.83;11.50;;;9.60;1.00;;;;;;5011738;28;20206;-60
2022/10/04 02:35:44;;;;;;;27.50;13.83;;;9.60;1.00;;;;;;5036335;28;21715;-61
2022/10/04 02:38:24;;;;;;;8.53;6.37;;;9.60;1.00;;;;;;5036444;28;20227;-60
2022/10/04 02:41:03;;;;;;;8.23;6.63;;;9.60;1.00;;;;;;5022114;28;20870;-59
2022/10/04 02:43:52;;;;;;;9.67;6.90;;;9.50;99.90;;;;;;5038229;28;20199;-60
2022/10/04 02:46:35;;;;;;;8.17;5.70;;;9.40;1.00;;;;;;5044004;28;20294;-61
2022/10/04 02:49:16;;;;;;;8.90;6.67;;;9.40;1.00;;;;;;5040436;28;20211;-64
2022/10/04 02:51:49;;;;;;;11.10;5.83;;;9.40;1.00;;;;;;5037983;28;20196;-62
2022/10/04 02:54:32;;;;;;;14.67;6.40;;;9.40;1.00;;;;;;5036434;28;20310;-63
2022/10/04 02:57:00;;;;;;;7.73;6.10;;;9.30;1.00;;;;;;5036351;28;20192;-62
2022/10/04 02:59:29;;;;;;;7.50;5.70;;;9.20;1.00;;;;;;5019066;28;20192;-63
2022/10/04 03:02:01;;;;;;;10.43;6.23;;;9.20;1.00;;;;;;5020458;28;20291;-63
2022/10/04 03:04:36;;;;;;;12.97;6.50;;;9.20;1.00;;;;;;5027716;28;20208;-63
2022/10/04 03:07:06;;;;;;;11.60;6.33;;;9.20;1.00;;;;;;5003184;28;20540;-63
2022/10/04 03:09:35;;;;;;;9.53;5.80;;;9.10;1.00;;;;;;5039493;28;20199;-61
2022/10/04 03:12:04;;;;;;;13.20;6.13;;;9.10;1.00;;;;;;5051075;28;20298;-61
2022/10/04 03:14:31;;;;;;;7.27;6.23;;;9.10;99.90;;;;;;5038555;28;20208;-61
2022/10/04 03:17:02;;;;;;;7.63;6.17;;;9.00;99.90;;;;;;5037924;28;20264;-62
2022/10/04 03:19:32;;;;;;;10.00;6.20;;;9.10;99.90;;;;;;5035986;28;20199;-63
2022/10/04 03:22:05;;;;;;;7.67;6.10;;;9.10;99.90;;;;;;5048042;28;20291;-62
2022/10/04 03:24:38;;;;;;;9.77;6.33;;;9.20;99.90;;;;;;5035516;28;20196;-63
2022/10/04 03:27:08;;;;;;;8.37;5.87;;;9.20;99.90;;;;;;5035137;28;20318;-63
2022/10/04 03:29:41;;;;;;;6.57;5.77;;;9.20;99.90;;;;;;5019243;28;20207;-63
2022/10/04 03:32:13;;;;;;;6.57;5.93;;;9.20;99.90;;;;;;5051707;28;20283;-62
2022/10/04 03:34:47;;;;;;;7.53;5.53;;;9.30;83.00;;;;;;5037425;28;20211;-63
2022/10/04 03:37:18;;;;;;;9.43;5.83;;;9.30;1.00;;;;;;5037372;28;20245;-62
2022/10/04 03:39:48;;;;;;;8.90;6.07;;;9.30;1.00;;;;;;5036746;28;20223;-62
2022/10/04 03:42:17;;;;;;;8.10;6.33;;;9.30;1.00;;;;;;5020966;28;20732;-62
2022/10/04 03:44:46;;;;;;;9.90;6.43;;;9.30;1.00;;;;;;5054107;28;20219;-64
2022/10/04 03:47:21;;;;;;;8.90;7.40;;;9.20;1.00;;;;;;5037223;28;20202;-62
2022/10/04 03:49:49;;;;;;;8.97;6.43;;;9.20;1.00;;;;;;5017749;28;20270;-63
2022/10/04 03:52:23;;;;;;;9.57;6.20;;;9.10;1.00;;;;;;5020509;28;20203;-63
2022/10/04 03:54:54;;;;;;;8.73;6.57;;;9.00;99.90;;;;;;5052121;28;20220;-63
2022/10/04 03:57:22;;;;;;;11.13;7.30;;;8.70;1.00;;;;;;5003419;28;20515;-63
2022/10/04 03:59:50;;;;;;;12.40;6.93;;;8.60;99.90;;;;;;5036922;28;20232;-63
2022/10/04 04:02:29;;;;;;;12.90;7.27;;;8.60;99.90;;;;;;5037029;28;20288;-63
2022/10/04 04:05:18;;;;;;;12.50;7.33;;;8.70;99.90;;;;;;5036601;28;20205;-63
2022/10/04 04:07:53;;;;;;;11.97;7.20;;;8.70;99.90;;;;;;5019543;28;20204;-62
2022/10/04 04:10:23;;;;;;;8.83;7.13;;;8.70;99.90;;;;;;5018992;28;20253;-62
2022/10/04 04:13:00;;;;;;;9.30;6.83;;;8.80;99.90;;;;;;5020183;28;20266;-63
2022/10/04 04:15:32;;;;;;;8.67;6.77;;;8.70;99.90;;;;;;5020200;28;20298;-64
2022/10/04 04:18:09;;;;;;;11.40;7.17;;;8.70;81.80;;;;;;5038180;28;20654;-62
2022/10/04 04:20:37;;;;;;;10.17;6.27;;;8.70;17.50;;;;;;5037125;28;20199;-62
2022/10/04 04:23:26;;;;;;;12.17;6.73;;;8.60;30.60;;;;;;5023787;28;20204;-62
2022/10/04 04:25:58;;;;;;;13.03;7.67;;;8.60;99.90;;;;;;5039408;28;20194;-63
2022/10/04 04:28:30;;;;;;;11.07;7.97;;;8.60;99.90;;;;;;5041002;28;20242;-62
2022/10/04 04:31:22;;;;;;;11.30;7.73;;;8.60;99.90;;;;;;5041374;28;20979;-63
2022/10/04 04:33:59;;;;;;;13.33;8.10;;;8.50;1.00;;;;;;5055840;28;20184;-63
2022/10/04 04:36:28;;;;;;;14.50;8.20;;;8.50;1.00;;;;;;5037815;28;20222;-62
2022/10/04 04:39:33;;;;;;;16.03;8.53;;;8.50;1.00;;;;;;5042267;28;20294;-62
2022/10/04 04:42:09;;;;;;;14.03;8.70;;;8.50;1.00;;;;;;5024557;28;20188;-62
2022/10/04 04:44:55;;;;;;;10.93;7.90;;;8.60;1.00;;;;;;5041331;28;20699;-62
2022/10/04 04:47:32;;;;;;;14.00;8.23;;;8.60;1.00;;;;;;5024580;28;20184;-63
2022/10/04 04:50:07;;;;;;;10.07;7.97;;;8.60;1.00;;;;;;5041410;28;20201;-62
2022/10/04 04:52:35;;;;;;;9.47;8.37;;;8.70;99.90;;;;;;5023612;28;20666;-61
2022/10/04 04:55:03;;;;;;;10.23;7.60;;;8.70;99.90;;;;;;5041196;28;20203;-62
2022/10/04 04:57:32;;;;;;;11.00;7.43;;;8.70;99.90;;;;;;5040004;28;20202;-62
2022/10/04 05:00:01;;;;;;;11.73;7.77;;;8.70;99.90;;;;;;5039744;28;20223;-63
2022/10/04 05:02:33;;;;;;;12.20;8.30;;;8.80;99.90;;;;;;5040107;28;20275;-62
2022/10/04 05:05:19;;;;;;;13.77;8.87;;;8.80;99.90;;;;;;5039664;28;20655;-59
2022/10/04 05:07:47;;;;;;;16.30;8.20;;;8.80;97.00;;;;;;5022884;28;20226;-60
2022/10/04 05:10:30;;;;;;;10.07;7.53;;;8.80;41.20;;;;;;5040925;28;20199;-59
2022/10/04 05:12:59;;;;;;;10.03;8.43;;;8.80;1.00;;;;;;5039285;28;20251;-60
2022/10/04 05:15:39;;;;;;;8.13;7.13;;;8.80;1.00;;;;;;5021954;28;20227;-61
2022/10/04 05:18:31;;;;;;;11.93;6.77;;;8.70;1.00;;;;;;5038630;28;20278;-60
2022/10/04 05:21:24;;;;;;;9.30;7.53;;;8.70;1.00;;;;;;5037049;28;20658;-60
2022/10/04 05:23:51;;;;;;;10.33;6.90;;;8.70;1.00;;;;;;5038478;28;20196;-59
2022/10/04 05:26:29;;;;;;;11.53;7.40;;;8.60;1.00;;;;;;5039413;28;20734;-60
2022/10/04 05:29:00;;;;;;;14.77;8.17;;;8.60;1.00;;;;;;5052207;28;20232;-60
2022/10/04 05:31:39;;;;;;;12.37;8.10;;;8.50;1.00;;;;;;5037427;28;20557;-61
2022/10/04 05:34:20;;;;;;;9.70;8.30;;;8.50;1.00;;;;;;5042437;28;20839;-60
2022/10/04 05:36:59;;;;;;;12.90;8.60;;;8.50;25.30;;;;;;5023778;28;20287;-60
2022/10/04 05:39:38;;;;;;;11.50;8.60;;;8.50;53.40;;;;;;5039335;28;20203;-60
2022/10/04 05:42:37;;;;;;;17.63;8.90;;;8.40;92.00;;;;;;5024928;28;20211;-60
2022/10/04 05:45:23;;;;;;;15.53;8.20;;;8.50;99.90;;;;;;5024520;28;20196;-60
2022/10/04 05:47:56;;;;;;;16.10;7.93;;;8.50;99.90;;;;;;5031916;28;20206;-59
2022/10/04 05:50:39;;;;;;;15.07;8.67;;;8.60;99.90;;;;;;5041923;28;20245;-61
2022/10/04 05:53:30;;;;;;;16.10;8.80;;;8.60;99.90;;;;;;5039831;28;20286;-59
2022/10/04 05:55:58;;;;;;;14.33;8.60;;;8.70;99.90;;;;;;5023039;28;20219;-60
2022/10/04 05:58:43;;;;;;;15.77;8.57;;;8.70;84.80;;;;;;5041207;28;20195;-59
2022/10/04 06:01:16;;;;;;;12.73;8.00;;;8.80;1.00;;;;;;5007316;28;20200;-59
2022/10/04 06:03:59;;;;;;;9.80;7.73;;;8.80;1.00;;;;;;5041017;28;20199;-59
2022/10/04 06:06:34;;;;;;;10.67;7.83;;;9.00;1.00;;;;;;5038331;28;20246;-60
2022/10/04 06:09:07;;;;;;;10.73;8.10;;;9.10;1.00;;;;;;5038158;28;20246;-60
2022/10/04 06:12:07;;;;;;;14.40;7.10;;;9.00;99.90;;;;;;5039624;28;20697;-59
2022/10/04 06:15:12;;;;;;;9.77;6.30;;;9.20;99.90;;;;;;5022400;28;20216;-60
2022/10/04 06:18:03;;;;;;;10.33;6.07;;;9.30;1.00;;;;;;4915625;29;20203;-60
2022/10/04 06:20:36;;;;;;;11.17;6.40;;;9.60;1.00;;;;;;4949364;28;20213;-60
2022/10/04 06:23:12;;;;;;;18.53;6.10;;;9.80;1.00;;;;;;4992537;28;20211;-60
2022/10/04 06:26:11;;;;;;;10.57;5.50;;;10.10;85.70;;;;;;5041251;28;20270;-59
2022/10/04 06:28:53;;;;;;;10.30;5.50;;;10.40;1.00;;;;;;5056575;28;20290;-59
2022/10/04 06:31:43;;;;;;;6.10;4.70;;;10.70;99.90;;;;;;5031848;28;20203;-59
2022/10/04 06:34:17;;;;;;;14.23;6.03;;;11.00;1.00;;;;;;5040602;28;20287;-59
2022/10/04 06:37:08;;;;;;;9.67;6.37;;;11.20;1.00;;;;;;5053764;28;20620;-59
2022/10/04 06:40:01;;;;;;;9.63;6.27;;;11.50;1.00;;;;;;5039079;28;20184;-59
2022/10/04 06:42:45;;;;;;;6.00;5.03;;;11.90;99.90;;;;;;5009114;28;20195;-60
2022/10/04 06:46:02;;;;;;;8.40;4.87;;;12.20;99.90;;;;;;5035000;28;20223;-61
2022/10/04 06:48:59;;;;;;;9.20;5.37;;;12.70;99.90;;;;;;5038613;28;20238;-59
2022/10/04 06:51:38;;;;;;;12.03;6.57;;;13.00;99.90;;;;;;5026516;28;20235;-61
2022/10/04 06:54:41;;;;;;;9.33;6.00;;;13.30;67.20;;;;;;5035372;28;20223;-61
2022/10/04 06:57:35;;;;;;;9.27;5.40;;;13.40;1.00;;;;;;5008415;28;20287;-60
2022/10/04 07:00:28;;;;;;;10.43;5.00;;;13.20;1.00;;;;;;5037407;28;20255;-62
2022/10/04 07:03:12;;;;;;;11.77;4.07;;;14.70;1.00;;;;;;5039811;28;20270;-59
2022/10/04 07:05:49;;;;;;;11.90;3.92;;;15.40;1.00;;;;;;5037290;28;20191;-59
2022/10/04 07:08:46;;;;;;;7.28;3.90;;;15.60;1.00;;;;;;5039653;28;20290;-59
2022/10/04 07:11:15;;;;;;;9.38;3.65;;;16.00;1.00;;;;;;5023379;28;20274;-59
2022/10/04 07:13:45;;;;;;;10.13;4.20;;;16.90;1.00;;;;;;5020918;28;20394;-59
2022/10/04 07:16:15;;;;;;;9.55;3.80;;;16.40;1.00;;;;;;5021460;28;20694;-60
2022/10/04 07:19:17;;;;;;;7.68;3.53;;;15.40;1.00;;;;;;5040012;28;20617;-61
2022/10/04 07:22:08;;;;;;;12.60;3.85;;;16.30;1.00;;;;;;5038673;28;20191;-61
2022/10/04 07:24:44;;;;;;;9.05;3.90;;;16.30;1.00;;;;;;5003162;28;20286;-60
2022/10/04 07:27:20;;;;;;;10.02;3.85;;;16.10;1.00;;;;;;5040012;28;20219;-61
2022/10/04 07:29:58;;;;;;;10.05;3.85;;;16.60;1.00;;;;;;5037594;28;20192;-61
2022/10/04 07:32:37;;;;;;;9.23;3.83;;;15.90;1.00;;;;;;5040065;28;20238;-60
2022/10/04 07:35:13;;;;;;;12.10;3.72;;;15.60;1.00;;;;;;5038383;28;20258;-60
2022/10/04 07:38:11;;;;;;;7.85;3.50;;;16.30;1.00;;;;;;5049876;28;20212;-60
2022/10/04 07:40:57;;;;;;;10.57;4.20;;;15.70;1.00;;;;;;5003252;28;20195;-61
2022/10/04 07:43:30;;;;;;;9.45;4.20;;;14.50;1.00;;;;;;5051181;28;20187;-61
2022/10/04 07:46:12;;;;;;;8.75;4.22;;;13.70;1.00;;;;;;5036751;28;20286;-61
2022/10/04 07:48:40;;;;;;;9.23;4.28;;;13.30;1.00;;;;;;5036043;28;20210;-59
2022/10/04 07:51:44;;;;;;;8.77;4.10;;;13.70;1.00;;;;;;5033545;28;20229;-60
2022/10/04 07:54:16;;;;;;;13.10;4.43;;;13.90;1.00;;;;;;5050354;28;20190;-59
2022/10/04 07:57:03;;;;;;;8.82;4.57;;;13.80;1.00;;;;;;5033353;28;20307;-60
2022/10/04 07:59:35;;;;;;;8.07;4.40;;;13.90;1.00;;;;;;5036864;28;20230;-60
2022/10/04 08:02:17;;;;;;;9.68;4.18;;;14.20;1.00;;;;;;5018419;28;20187;-62
2022/10/04 08:05:09;;;;;;;10.45;5.45;;;14.50;1.00;;;;;;5037255;28;20607;-60
2022/10/04 08:07:54;;;;;;;8.07;4.25;;;14.50;1.00;;;;;;5025432;28;20196;-61
2022/10/04 08:10:30;;;;;;;9.10;4.10;;;14.90;1.00;;;;;;5039413;28;20274;-60
2022/10/04 08:13:25;;;;;;;9.13;3.95;;;15.20;1.00;;;;;;5038904;28;20220;-60
2022/10/04 08:15:54;;;;;;;12.32;4.30;;;15.10;1.00;;;;;;5020748;28;20229;-59
2022/10/04 08:18:36;;;;;;;8.75;4.20;;;15.70;1.00;;;;;;5018382;28;20240;-58
2022/10/04 08:21:13;;;;;;;6.38;3.80;;;16.10;1.00;;;;;;5010641;28;20231;-58
2022/10/04 08:24:01;;;;;;;10.80;4.40;;;15.40;1.00;;;;;;5008953;28;20210;-58
2022/10/04 08:26:43;;;;;;;11.45;4.35;;;15.50;1.00;;;;;;5035816;28;20236;-59
2022/10/04 08:32:30;;;;;;;11.13;4.80;;;16.30;1.00;;;;;;5031241;28;20685;-58
2022/10/04 08:35:27;;;;;;;10.15;4.30;;;16.50;1.00;;;;;;5038016;28;20195;-58
2022/10/04 08:38:13;;;;;;;10.65;4.28;;;16.30;1.00;;;;;;5035870;28;20654;-60
2022/10/04 08:40:59;;;;;;;8.93;4.25;;;16.10;1.00;;;;;;5037804;28;20203;-58
2022/10/04 08:43:48;;;;;;;8.77;4.10;;;16.20;1.00;;;;;;5033077;28;20224;-58
2022/10/04 08:46:39;;;;;;;7.18;3.55;;;17.40;1.00;;;;;;5037741;28;20704;-58
2022/10/04 08:49:22;;;;;;;8.75;3.78;;;21.20;1.00;;;;;;5037375;28;20191;-58
2022/10/04 08:52:07;;;;;;;5.70;3.35;;;22.80;1.00;;;;;;5003397;28;20212;-58
2022/10/04 08:55:02;;;;;;;12.13;2.95;;;24.60;1.00;;;;;;5037066;28;20207;-58
2022/10/04 08:58:06;;;;;;;9.65;3.53;;;24.80;1.00;;;;;;5049921;28;20296;-59
2022/10/04 09:01:05;;;;;;;9.85;3.58;;;27.30;1.00;;;;;;5017131;28;20314;-59
2022/10/04 09:04:09;;;;;;;6.57;3.20;;;28.70;1.00;;;;;;5035709;28;20223;-59
2022/10/04 09:07:01;;;;;;;7.28;2.83;;;29.70;1.00;;;;;;5035214;28;20542;-59
2022/10/04 09:09:33;;;;;;;5.40;2.90;;;29.10;1.00;;;;;;5052349;28;20283;-59
2022/10/04 09:12:28;;;;;;;6.50;2.97;;;28.80;1.00;;;;;;5022732;28;20690;-59
2022/10/04 09:15:36;;;;;;;8.93;3.13;;;31.10;1.00;;;;;;5028310;28;20196;-59
2022/10/04 09:18:19;;;;;;;5.68;3.00;;;34.40;1.00;;;;;;5037996;28;20694;-59
2022/10/04 09:20:46;;;;;;;7.90;3.00;;;31.70;1.00;;;;;;5004938;28;20657;-59
2022/10/04 09:23:41;;;;;;;6.80;2.90;;;33.60;1.00;;;;;;5021842;28;20243;-59
2022/10/04 09:26:36;;;;;;;9.38;3.00;;;29.90;1.00;;;;;;5054839;28;20303;-59
2022/10/04 09:29:36;;;;;;;6.35;2.83;;;30.50;1.00;;;;;;4999679;28;20228;-59
2022/10/04 09:32:19;;;;;;;6.57;3.00;;;32.80;1.00;;;;;;4999770;28;20198;-59
2022/10/04 09:35:05;;;;;;;7.40;3.10;;;34.60;1.00;;;;;;4998789;28;20192;-60
2022/10/04 09:37:44;;;;;;;6.47;3.00;;;31.40;1.00;;;;;;4999542;28;20658;-63
2022/10/04 09:40:29;;;;;;;5.82;3.00;;;28.00;1.00;;;;;;5001083;28;20220;-64
2022/10/04 09:43:20;;;;;;;6.25;2.95;;;26.40;1.00;;;;;;5001223;28;20204;-59
2022/10/04 09:46:10;;;;;;;9.40;2.92;;;24.80;1.00;;;;;;5015842;28;20205;-58
2022/10/04 09:48:45;;;;;;;6.15;3.00;;;25.40;1.00;;;;;;5000494;28;20686;-59
2022/10/04 09:51:44;;;;;;;7.22;2.80;;;25.40;1.00;;;;;;5000646;28;20228;-58
2022/10/04 09:54:36;;;;;;;6.03;3.28;;;24.20;1.00;;;;;;5001976;28;20669;-58
2022/10/04 09:57:38;;;;;;;6.53;3.03;;;27.40;1.00;;;;;;4999462;28;20216;-58
2022/10/04 10:00:23;;;;;;;7.72;2.88;;;27.00;1.00;;;;;;5002677;28;20883;-58
2022/10/04 10:03:18;;;;;;;7.60;3.22;;;26.40;1.00;;;;;;4998121;28;20204;-58
2022/10/04 10:06:07;;;;;;;7.00;2.97;;;26.00;1.00;;;;;;4999632;28;20212;-59
2022/10/04 10:08:56;;;;;;;4.22;2.92;;;28.30;1.00;;;;;;5006384;28;20288;-58
2022/10/04 10:14:58;;;;;;;6.20;2.95;;;31.20;1.00;;;;;;4996967;28;20646;-58
2022/10/04 10:17:43;;;;;;;5.90;3.05;;;30.50;1.00;;;;;;5002204;28;20244;-58
2022/10/04 10:20:32;;;;;;;5.13;3.22;;;26.50;1.00;;;;;;5001110;28;20208;-58
2022/10/04 10:23:17;;;;;;;6.15;3.30;;;24.70;1.00;;;;;;5000327;28;20207;-59
2022/10/04 10:26:02;;;;;;;6.05;2.53;;;24.90;1.00;;;;;;4997593;28;20576;-58
2022/10/04 10:28:51;;;;;;;9.27;3.67;;;25.90;1.00;;;;;;5023933;28;20239;-60
2022/10/04 10:31:50;;;;;;;6.47;3.05;;;27.50;1.00;;;;;;5022746;28;20200;-59
2022/10/04 10:34:41;;;;;;;5.78;3.05;;;27.50;1.00;;;;;;5020446;28;20200;-59
2022/10/04 10:37:36;;;;;;;6.72;2.90;;;27.90;1.00;;;;;;5018203;28;20299;-59
2022/10/04 10:40:29;;;;;;;8.50;3.47;;;26.00;1.00;;;;;;5018678;28;20193;-59
2022/10/04 10:43:17;;;;;;;6.80;2.65;;;25.50;1.00;;;;;;5021094;28;20196;-62
2022/10/04 10:46:05;;;;;;;4.35;2.63;;;27.10;1.00;;;;;;5016726;28;20216;-59
2022/10/04 10:48:53;;;;;;;6.68;2.55;;;29.10;1.00;;;;;;5026643;28;20210;-59
2022/10/04 10:51:54;;;;;;;7.88;2.85;;;29.80;1.00;;;;;;5020008;28;20602;-59
2022/10/04 10:54:36;;;;;;;9.30;3.10;;;29.10;1.00;;;;;;5020304;28;20219;-59
2022/10/04 10:57:33;;;;;;;6.38;3.28;;;26.10;1.00;;;;;;5033276;28;20839;-60
2022/10/04 11:00:33;;;;;;;9.38;2.92;;;24.80;1.00;;;;;;5020919;28;20291;-63
2022/10/04 11:03:22;;;;;;;5.28;2.65;;;25.20;1.00;;;;;;4976718;28;20215;-59
2022/10/04 11:06:07;;;;;;;5.63;3.25;;;22.90;1.00;;;;;;5017826;28;20384;-58
2022/10/04 11:09:03;;;;;;;7.30;3.10;;;23.90;1.00;;;;;;5018407;28;20199;-59
2022/10/04 11:11:47;;;;;;;7.03;3.55;;;23.90;1.00;;;;;;5021436;28;20208;-59
2022/10/04 11:14:27;;;;;;;11.35;3.80;;;24.20;1.00;;;;;;5018646;28;20730;-58
2022/10/04 11:17:34;;;;;;;7.43;3.58;;;23.50;1.00;;;;;;5016339;28;20270;-59
2022/10/04 11:20:33;;;;;;;7.93;3.28;;;24.40;1.00;;;;;;5019810;28;20709;-60
2022/10/04 11:23:22;;;;;;;4.80;2.80;;;25.90;1.00;;;;;;4990272;28;20244;-59
2022/10/04 11:26:07;;;;;;;6.70;2.72;;;27.00;1.00;;;;;;5015141;28;20208;-59
2022/10/04 11:28:55;;;;;;;7.40;2.67;;;27.90;1.00;;;;;;5040652;28;20235;-59
2022/10/04 11:31:39;;;;;;;6.63;2.95;;;28.30;1.00;;;;;;5041657;28;20219;-59
2022/10/04 11:34:47;;;;;;;7.13;2.75;;;29.10;1.00;;;;;;5055259;28;20217;-59
2022/10/04 11:37:40;;;;;;;7.72;2.97;;;29.80;1.00;;;;;;4948108;28;21943;-59
2022/10/04 11:40:38;;;;;;;5.10;2.67;;;30.60;1.00;;;;;;4948611;28;20214;-61
2022/10/04 11:43:13;;;;;;;5.28;2.97;;;28.40;1.00;;;;;;5017493;28;20611;-61
2022/10/04 11:46:00;;;;;;;5.82;3.00;;;27.80;1.00;;;;;;5020800;28;20269;-61
2022/10/04 11:48:36;;;;;;;12.63;4.03;;;27.30;1.00;;;;;;5040585;28;20227;-60
2022/10/04 11:51:21;;;;;;;4.68;3.05;;;27.50;1.00;;;;;;5036894;28;20274;-59
2022/10/04 11:54:13;;;;;;;5.82;2.90;;;26.30;1.00;;;;;;5039843;28;20294;-59
2022/10/04 11:57:00;;;;;;;4.38;2.70;;;26.50;1.00;;;;;;5038679;28;20207;-59
2022/10/04 11:59:46;;;;;;;4.38;3.35;;;25.20;1.00;;;;;;5040293;28;20331;-59
2022/10/04 12:02:16;;;;;;;4.75;2.92;;;26.10;1.00;;;;;;5024424;28;20188;-59
2022/10/04 12:05:01;;;;;;;7.05;2.47;;;25.50;1.00;;;;;;5028053;28;20195;-59
2022/10/04 12:08:00;;;;;;;5.80;3.10;;;25.30;1.00;;;;;;5037521;28;20199;-59
2022/10/04 12:10:37;;;;;;;4.50;2.80;;;23.70;1.00;;;;;;5018628;28;20231;-59
2022/10/04 12:13:31;;;;;;;4.45;2.58;;;24.50;1.00;;;;;;5040602;28;20248;-58
2022/10/04 12:16:14;;;;;;;4.45;2.58;;;24.50;1.00;;;;;;5023541;28;20291;-59
2022/10/04 12:18:59;;;;;;;6.30;2.83;;;23.90;1.00;;;;;;5025747;28;20528;-59
2022/10/04 12:21:27;;;;;;;4.63;2.60;;;23.20;1.00;;;;;;5020735;28;20188;-59
2022/10/04 12:24:03;;;;;;;3.88;2.53;;;23.70;1.00;;;;;;5040588;28;20246;-59
2022/10/04 12:26:42;;;;;;;7.10;2.70;;;22.60;1.00;;;;;;5021918;28;20209;-59
2022/10/04 12:29:12;;;;;;;5.38;2.30;;;23.30;1.00;;;;;;5022572;28;20688;-59
2022/10/04 12:31:54;;;;;;;7.32;2.47;;;23.00;1.00;;;;;;5038514;28;20669;-59
2022/10/04 12:34:54;;;;;;;4.28;2.35;;;23.40;1.00;;;;;;5039364;28;20218;-58
2022/10/04 12:37:51;;;;;;;5.00;2.58;;;23.00;1.00;;;;;;5039667;28;20683;-59
2022/10/04 12:40:32;;;;;;;6.00;2.63;;;22.70;1.00;;;;;;5006556;28;20274;-59
2022/10/04 12:43:08;;;;;;;7.53;2.50;;;22.90;1.00;;;;;;5043979;28;20192;-59
2022/10/04 12:45:45;;;;;;;4.15;2.50;;;22.30;1.00;;;;;;5056188;28;20294;-59
2022/10/04 12:48:18;;;;;;;3.25;2.40;;;22.10;1.00;;;;;;5027178;28;20249;-59
2022/10/04 12:50:53;;;;;;;4.90;2.22;;;22.40;1.00;;;;;;5030903;28;20233;-59
2022/10/04 12:53:47;;;;;;;2.55;2.05;;;22.90;1.00;;;;;;5025313;28;20192;-58
2022/10/04 12:56:39;;;;;;;6.28;2.30;;;21.90;1.00;;;;;;5035501;28;20276;-59
2022/10/04 12:59:15;;;;;;;6.65;2.50;;;21.20;1.00;;;;;;5025846;28;20199;-59
2022/10/04 13:02:05;;;;;;;3.65;2.53;;;21.30;1.00;;;;;;5028253;28;20677;-61
2022/10/04 13:04:40;;;;;;;7.47;2.55;;;21.00;1.00;;;;;;5020444;28;20208;-59
2022/10/04 13:07:22;;;;;;;4.78;2.25;;;21.00;1.00;;;;;;5043713;28;20204;-59
2022/10/04 13:09:55;;;;;;;5.72;2.20;;;21.20;1.00;;;;;;5044532;28;20200;-59
2022/10/04 13:13:18;;;;;;;3.22;2.28;;;21.30;1.00;;;;;;5045249;28;20218;-60
2022/10/04 13:16:21;;;;;;;5.47;2.60;;;21.00;1.00;;;;;;5044327;28;20282;-62
2022/10/04 13:19:16;;;;;;;3.60;2.28;;;21.10;1.00;;;;;;5020091;28;20196;-61
2022/10/04 13:22:14;;;;;;;4.72;2.08;;;21.00;1.00;;;;;;5035009;28;20195;-61
2022/10/04 13:25:16;;;;;;;6.50;2.28;;;20.80;1.00;;;;;;5044647;28;20202;-62
2022/10/04 13:28:05;;;;;;;4.28;2.45;;;20.60;1.00;;;;;;5038594;28;20656;-61
2022/10/04 13:30:55;;;;;;;3.72;2.53;;;20.70;1.00;;;;;;5043053;28;20246;-61
2022/10/04 13:33:54;;;;;;;4.55;2.30;;;20.70;1.00;;;;;;5033197;28;20619;-61
2022/10/04 13:36:40;;;;;;;3.58;2.15;;;20.70;1.00;;;;;;5044823;28;20585;-62
2022/10/04 13:39:25;;;;;;;9.75;2.90;;;20.50;1.00;;;;;;5027575;28;20219;-61
2022/10/04 13:42:16;;;;;;;5.05;2.58;;;20.40;1.00;;;;;;5040982;28;20684;-61
2022/10/04 13:44:55;;;;;;;6.78;2.42;;;20.60;1.00;;;;;;5025368;28;20202;-61
2022/10/04 13:47:44;;;;;;;4.43;2.42;;;20.50;1.00;;;;;;5043417;28;20858;-61
2022/10/04 13:50:28;;;;;;;6.53;2.45;;;20.50;1.00;;;;;;5036108;28;20206;-62
2022/10/04 13:59:20;;;;;;;3.67;1.75;;;20.40;1.00;;;;;;5022988;28;20740;-62
2022/10/04 14:02:12;;;;;;;3.78;2.20;;;20.40;1.00;;;;;;5024698;28;20712;-62
2022/10/04 14:04:42;;;;;;;2.70;1.90;;;20.60;1.00;;;;;;5055315;28;20208;-61
2022/10/04 14:07:43;;;;;;;4.03;1.63;;;20.70;1.00;;;;;;5031630;28;20238;-61
2022/10/04 14:10:47;;;;;;;3.97;2.00;;;20.50;1.00;;;;;;5042290;28;20203;-61
2022/10/04 14:13:26;;;;;;;3.40;1.95;;;20.50;1.00;;;;;;5042270;28;20303;-61
2022/10/04 14:16:14;;;;;;;5.13;2.00;;;20.40;1.00;;;;;;5025598;28;20196;-61
2022/10/04 14:18:44;;;;;;;3.67;1.95;;;20.40;1.00;;;;;;5043348;28;20677;-62
2022/10/04 14:21:39;;;;;;;4.25;1.85;;;20.30;1.00;;;;;;5029456;28;20208;-62
2022/10/04 14:24:32;;;;;;;7.85;2.20;;;20.30;1.00;;;;;;5042258;28;20215;-62